Terminal Aerodrome Forecast
Issued by NWS Cleveland, OH

Home | Current Version | Previous Version | Graphics & Text | Print | Product List | Glossary On
Versions: 1 2 3 4 5 6 7 8 9 10 11 12
796
FTUS41 KCLE 210856 AAA
TAFMFD
TAF AMD
KMFD 210856Z 2109/2206 27010KT P6SM BKN025
     FM211000 27010KT P6SM SCT100
     FM211100 27010KT P6SM OVC035
     FM211400 27012G20KT P6SM OVC025
     FM211900 28012G22KT P6SM BKN035
     FM212300 32010KT P6SM BKN035=

USA.gov is the U.S. government's official web portal to all federal, state and local government web resources and services.